sensor_id;sensor_type;location;lat;lon;timestamp;P1;durP1;ratioP1;P2;durP2;ratioP2
80930;SDS011;70388;42.698;23.324;2024-02-26T00:01:39;49.58;;;29.45;;
80930;SDS011;70388;42.698;23.324;2024-02-26T00:04:04;51.28;;;30.52;;
80930;SDS011;70388;42.698;23.324;2024-02-26T00:06:30;56.78;;;31.58;;
80930;SDS011;70388;42.698;23.324;2024-02-26T00:08:56;52.85;;;30.02;;
80930;SDS011;70388;42.698;23.324;2024-02-26T00:11:22;57.13;;;30.98;;
80930;SDS011;70388;42.698;23.324;2024-02-26T00:13:48;54.60;;;28.77;;
80930;SDS011;70388;42.698;23.324;2024-02-26T00:16:14;46.25;;;27.95;;
80930;SDS011;70388;42.698;23.324;2024-02-26T00:18:39;48.72;;;28.17;;
80930;SDS011;70388;42.698;23.324;2024-02-26T00:21:05;48.38;;;28.88;;
80930;SDS011;70388;42.698;23.324;2024-02-26T00:23:31;57.25;;;30.63;;
80930;SDS011;70388;42.698;23.324;2024-02-26T00:25:57;45.67;;;28.38;;
80930;SDS011;70388;42.698;23.324;2024-02-26T00:28:23;45.65;;;27.73;;
80930;SDS011;70388;42.698;23.324;2024-02-26T00:30:50;48.22;;;28.65;;
80930;SDS011;70388;42.698;23.324;2024-02-26T00:33:20;53.88;;;28.58;;
80930;SDS011;70388;42.698;23.324;2024-02-26T00:35:47;42.42;;;28.95;;
80930;SDS011;70388;42.698;23.324;2024-02-26T00:38:12;44.67;;;28.08;;
80930;SDS011;70388;42.698;23.324;2024-02-26T00:40:38;52.35;;;29.80;;
80930;SDS011;70388;42.698;23.324;2024-02-26T00:43:05;44.92;;;28.23;;
80930;SDS011;70388;42.698;23.324;2024-02-26T00:45:32;42.28;;;26.95;;
80930;SDS011;70388;42.698;23.324;2024-02-26T00:47:58;43.33;;;27.38;;
80930;SDS011;70388;42.698;23.324;2024-02-26T00:50:26;43.60;;;25.40;;
80930;SDS011;70388;42.698;23.324;2024-02-26T00:52:52;44.22;;;26.60;;
80930;SDS011;70388;42.698;23.324;2024-02-26T00:55:18;43.97;;;26.48;;
80930;SDS011;70388;42.698;23.324;2024-02-26T00:57:43;47.95;;;27.08;;
80930;SDS011;70388;42.698;23.324;2024-02-26T01:00:12;40.85;;;25.27;;
80930;SDS011;70388;42.698;23.324;2024-02-26T01:02:40;43.00;;;26.00;;
80930;SDS011;70388;42.698;23.324;2024-02-26T01:05:12;44.92;;;25.08;;
80930;SDS011;70388;42.698;23.324;2024-02-26T01:07:38;43.38;;;24.95;;
80930;SDS011;70388;42.698;23.324;2024-02-26T01:10:05;44.00;;;26.25;;
80930;SDS011;70388;42.698;23.324;2024-02-26T01:12:32;39.03;;;24.02;;
80930;SDS011;70388;42.698;23.324;2024-02-26T01:14:59;41.20;;;25.20;;
80930;SDS011;70388;42.698;23.324;2024-02-26T01:17:25;42.03;;;23.98;;
80930;SDS011;70388;42.698;23.324;2024-02-26T01:19:51;38.13;;;23.33;;
80930;SDS011;70388;42.698;23.324;2024-02-26T01:22:18;38.58;;;24.02;;
80930;SDS011;70388;42.698;23.324;2024-02-26T01:24:44;39.10;;;23.60;;
80930;SDS011;70388;42.698;23.324;2024-02-26T01:27:10;38.70;;;25.10;;
80930;SDS011;70388;42.698;23.324;2024-02-26T01:29:36;41.80;;;25.13;;
80930;SDS011;70388;42.698;23.324;2024-02-26T01:32:02;40.10;;;24.77;;
80930;SDS011;70388;42.698;23.324;2024-02-26T01:34:30;38.70;;;23.92;;
80930;SDS011;70388;42.698;23.324;2024-02-26T01:36:55;39.78;;;24.58;;
80930;SDS011;70388;42.698;23.324;2024-02-26T01:39:21;40.90;;;24.83;;
80930;SDS011;70388;42.698;23.324;2024-02-26T01:41:47;35.20;;;23.25;;
80930;SDS011;70388;42.698;23.324;2024-02-26T01:44:13;41.05;;;24.08;;
80930;SDS011;70388;42.698;23.324;2024-02-26T01:46:39;42.83;;;25.08;;
80930;SDS011;70388;42.698;23.324;2024-02-26T01:49:05;40.25;;;24.90;;
80930;SDS011;70388;42.698;23.324;2024-02-26T01:51:32;39.78;;;23.48;;
80930;SDS011;70388;42.698;23.324;2024-02-26T01:53:59;37.65;;;23.45;;
80930;SDS011;70388;42.698;23.324;2024-02-26T01:56:29;37.00;;;22.52;;
80930;SDS011;70388;42.698;23.324;2024-02-26T01:58:59;39.03;;;24.55;;
80930;SDS011;70388;42.698;23.324;2024-02-26T02:01:27;38.05;;;23.67;;
80930;SDS011;70388;42.698;23.324;2024-02-26T02:03:54;39.47;;;23.75;;
80930;SDS011;70388;42.698;23.324;2024-02-26T02:06:22;36.47;;;22.85;;
80930;SDS011;70388;42.698;23.324;2024-02-26T02:08:49;37.55;;;23.33;;
80930;SDS011;70388;42.698;23.324;2024-02-26T02:11:14;41.47;;;24.60;;
80930;SDS011;70388;42.698;23.324;2024-02-26T02:13:41;42.10;;;24.10;;
80930;SDS011;70388;42.698;23.324;2024-02-26T02:16:07;42.85;;;25.52;;
80930;SDS011;70388;42.698;23.324;2024-02-26T02:18:33;42.05;;;24.05;;
80930;SDS011;70388;42.698;23.324;2024-02-26T02:21:02;41.28;;;23.02;;
80930;SDS011;70388;42.698;23.324;2024-02-26T02:23:28;41.13;;;24.30;;
80930;SDS011;70388;42.698;23.324;2024-02-26T02:25:54;44.00;;;24.45;;
80930;SDS011;70388;42.698;23.324;2024-02-26T02:28:22;41.17;;;24.63;;
80930;SDS011;70388;42.698;23.324;2024-02-26T02:30:50;40.45;;;24.25;;
80930;SDS011;70388;42.698;23.324;2024-02-26T02:33:16;38.10;;;23.50;;
80930;SDS011;70388;42.698;23.324;2024-02-26T02:35:42;39.60;;;24.63;;
80930;SDS011;70388;42.698;23.324;2024-02-26T02:38:08;34.85;;;23.23;;
80930;SDS011;70388;42.698;23.324;2024-02-26T02:40:34;39.38;;;24.35;;
80930;SDS011;70388;42.698;23.324;2024-02-26T02:43:00;40.80;;;24.30;;
80930;SDS011;70388;42.698;23.324;2024-02-26T02:45:27;40.05;;;23.27;;
80930;SDS011;70388;42.698;23.324;2024-02-26T02:47:53;38.75;;;22.50;;
80930;SDS011;70388;42.698;23.324;2024-02-26T02:50:19;40.95;;;24.98;;
80930;SDS011;70388;42.698;23.324;2024-02-26T02:52:45;38.08;;;23.85;;
80930;SDS011;70388;42.698;23.324;2024-02-26T02:55:11;39.90;;;24.33;;
80930;SDS011;70388;42.698;23.324;2024-02-26T02:57:37;38.63;;;22.95;;
80930;SDS011;70388;42.698;23.324;2024-02-26T03:00:09;38.88;;;23.23;;
80930;SDS011;70388;42.698;23.324;2024-02-26T03:02:35;37.92;;;24.90;;
80930;SDS011;70388;42.698;23.324;2024-02-26T03:05:02;43.05;;;23.23;;
80930;SDS011;70388;42.698;23.324;2024-02-26T03:07:31;40.45;;;23.35;;
80930;SDS011;70388;42.698;23.324;2024-02-26T03:09:57;39.78;;;25.27;;
80930;SDS011;70388;42.698;23.324;2024-02-26T03:12:23;43.75;;;25.58;;
80930;SDS011;70388;42.698;23.324;2024-02-26T03:14:48;43.50;;;23.80;;
80930;SDS011;70388;42.698;23.324;2024-02-26T03:17:14;44.97;;;25.00;;
80930;SDS011;70388;42.698;23.324;2024-02-26T03:19:40;43.60;;;26.38;;
80930;SDS011;70388;42.698;23.324;2024-02-26T03:22:06;47.42;;;24.48;;
80930;SDS011;70388;42.698;23.324;2024-02-26T03:24:32;38.95;;;24.05;;
80930;SDS011;70388;42.698;23.324;2024-02-26T03:26:58;38.60;;;24.30;;
80930;SDS011;70388;42.698;23.324;2024-02-26T03:29:24;40.92;;;25.98;;
80930;SDS011;70388;42.698;23.324;2024-02-26T03:31:50;38.05;;;24.00;;
80930;SDS011;70388;42.698;23.324;2024-02-26T03:34:15;40.33;;;25.55;;
80930;SDS011;70388;42.698;23.324;2024-02-26T03:36:42;37.28;;;24.00;;
80930;SDS011;70388;42.698;23.324;2024-02-26T03:39:08;40.78;;;24.40;;
80930;SDS011;70388;42.698;23.324;2024-02-26T03:41:34;35.35;;;22.23;;
80930;SDS011;70388;42.698;23.324;2024-02-26T03:44:00;36.88;;;22.00;;
80930;SDS011;70388;42.698;23.324;2024-02-26T03:46:26;36.50;;;22.35;;
80930;SDS011;70388;42.698;23.324;2024-02-26T03:48:52;39.70;;;24.27;;
80930;SDS011;70388;42.698;23.324;2024-02-26T03:51:18;38.28;;;22.92;;
80930;SDS011;70388;42.698;23.324;2024-02-26T03:53:44;32.75;;;21.98;;
80930;SDS011;70388;42.698;23.324;2024-02-26T03:56:11;38.45;;;23.08;;
80930;SDS011;70388;42.698;23.324;2024-02-26T03:58:37;38.95;;;22.25;;
80930;SDS011;70388;42.698;23.324;2024-02-26T04:01:03;36.25;;;22.73;;
80930;SDS011;70388;42.698;23.324;2024-02-26T04:03:28;43.90;;;23.75;;
80930;SDS011;70388;42.698;23.324;2024-02-26T04:05:54;39.95;;;24.13;;
80930;SDS011;70388;42.698;23.324;2024-02-26T04:08:20;38.03;;;23.75;;
80930;SDS011;70388;42.698;23.324;2024-02-26T04:10:46;41.78;;;22.50;;
80930;SDS011;70388;42.698;23.324;2024-02-26T04:13:12;41.33;;;23.70;;
80930;SDS011;70388;42.698;23.324;2024-02-26T04:15:37;40.00;;;23.25;;
80930;SDS011;70388;42.698;23.324;2024-02-26T04:18:03;41.35;;;25.35;;
80930;SDS011;70388;42.698;23.324;2024-02-26T04:20:29;41.05;;;25.27;;
80930;SDS011;70388;42.698;23.324;2024-02-26T04:22:55;44.90;;;26.95;;
80930;SDS011;70388;42.698;23.324;2024-02-26T04:25:21;47.33;;;28.88;;
80930;SDS011;70388;42.698;23.324;2024-02-26T04:27:46;46.53;;;26.65;;
80930;SDS011;70388;42.698;23.324;2024-02-26T04:30:12;53.72;;;29.33;;
80930;SDS011;70388;42.698;23.324;2024-02-26T04:32:38;42.45;;;26.70;;
80930;SDS011;70388;42.698;23.324;2024-02-26T04:35:04;46.10;;;28.30;;
80930;SDS011;70388;42.698;23.324;2024-02-26T04:37:30;47.88;;;27.38;;
80930;SDS011;70388;42.698;23.324;2024-02-26T04:39:59;49.40;;;29.95;;
80930;SDS011;70388;42.698;23.324;2024-02-26T04:42:26;48.38;;;27.83;;
80930;SDS011;70388;42.698;23.324;2024-02-26T04:44:52;48.15;;;28.65;;
80930;SDS011;70388;42.698;23.324;2024-02-26T04:47:19;51.33;;;29.35;;
80930;SDS011;70388;42.698;23.324;2024-02-26T04:49:47;47.25;;;28.35;;
80930;SDS011;70388;42.698;23.324;2024-02-26T04:52:14;50.70;;;29.95;;
80930;SDS011;70388;42.698;23.324;2024-02-26T04:54:40;49.63;;;29.92;;
80930;SDS011;70388;42.698;23.324;2024-02-26T04:57:05;46.20;;;29.20;;
80930;SDS011;70388;42.698;23.324;2024-02-26T04:59:31;48.20;;;29.63;;
80930;SDS011;70388;42.698;23.324;2024-02-26T05:01:57;47.72;;;28.98;;
80930;SDS011;70388;42.698;23.324;2024-02-26T05:04:23;48.42;;;29.08;;
80930;SDS011;70388;42.698;23.324;2024-02-26T05:06:48;40.50;;;26.65;;
80930;SDS011;70388;42.698;23.324;2024-02-26T05:09:14;41.28;;;24.58;;
80930;SDS011;70388;42.698;23.324;2024-02-26T05:11:40;38.22;;;25.05;;
80930;SDS011;70388;42.698;23.324;2024-02-26T05:14:06;43.38;;;25.67;;
80930;SDS011;70388;42.698;23.324;2024-02-26T05:16:31;46.40;;;27.67;;
80930;SDS011;70388;42.698;23.324;2024-02-26T05:18:57;49.58;;;26.90;;
80930;SDS011;70388;42.698;23.324;2024-02-26T05:21:23;47.85;;;27.60;;
80930;SDS011;70388;42.698;23.324;2024-02-26T05:23:49;42.65;;;25.33;;
80930;SDS011;70388;42.698;23.324;2024-02-26T05:26:21;39.20;;;24.80;;
80930;SDS011;70388;42.698;23.324;2024-02-26T05:28:47;41.47;;;25.42;;
80930;SDS011;70388;42.698;23.324;2024-02-26T05:31:14;41.60;;;23.48;;
80930;SDS011;70388;42.698;23.324;2024-02-26T05:33:40;37.60;;;23.33;;
80930;SDS011;70388;42.698;23.324;2024-02-26T05:36:06;35.13;;;22.90;;
80930;SDS011;70388;42.698;23.324;2024-02-26T05:38:32;41.72;;;25.25;;
80930;SDS011;70388;42.698;23.324;2024-02-26T05:41:00;32.70;;;21.42;;
80930;SDS011;70388;42.698;23.324;2024-02-26T05:43:27;34.45;;;20.60;;
80930;SDS011;70388;42.698;23.324;2024-02-26T05:45:53;36.80;;;21.63;;
80930;SDS011;70388;42.698;23.324;2024-02-26T05:48:19;32.50;;;20.42;;
80930;SDS011;70388;42.698;23.324;2024-02-26T05:50:45;38.80;;;21.42;;
80930;SDS011;70388;42.698;23.324;2024-02-26T05:53:11;37.22;;;21.05;;
80930;SDS011;70388;42.698;23.324;2024-02-26T05:55:37;37.17;;;21.23;;
80930;SDS011;70388;42.698;23.324;2024-02-26T05:58:03;39.15;;;22.27;;
80930;SDS011;70388;42.698;23.324;2024-02-26T06:00:29;37.33;;;20.85;;
80930;SDS011;70388;42.698;23.324;2024-02-26T06:02:55;36.05;;;22.15;;
80930;SDS011;70388;42.698;23.324;2024-02-26T06:05:21;39.40;;;22.83;;
80930;SDS011;70388;42.698;23.324;2024-02-26T06:07:46;38.13;;;23.25;;
80930;SDS011;70388;42.698;23.324;2024-02-26T06:10:12;42.00;;;23.05;;
80930;SDS011;70388;42.698;23.324;2024-02-26T06:12:41;40.78;;;22.58;;
80930;SDS011;70388;42.698;23.324;2024-02-26T06:15:07;35.85;;;22.20;;
80930;SDS011;70388;42.698;23.324;2024-02-26T06:17:33;40.30;;;23.13;;
80930;SDS011;70388;42.698;23.324;2024-02-26T06:19:59;41.15;;;23.80;;
80930;SDS011;70388;42.698;23.324;2024-02-26T06:22:25;38.75;;;23.35;;
80930;SDS011;70388;42.698;23.324;2024-02-26T06:24:52;39.78;;;21.98;;
80930;SDS011;70388;42.698;23.324;2024-02-26T06:27:17;46.28;;;24.92;;
80930;SDS011;70388;42.698;23.324;2024-02-26T06:29:43;39.45;;;23.95;;
80930;SDS011;70388;42.698;23.324;2024-02-26T06:32:09;41.10;;;24.63;;
80930;SDS011;70388;42.698;23.324;2024-02-26T06:34:35;43.08;;;24.20;;
80930;SDS011;70388;42.698;23.324;2024-02-26T06:37:01;40.13;;;26.50;;
80930;SDS011;70388;42.698;23.324;2024-02-26T06:39:28;45.63;;;25.90;;
80930;SDS011;70388;42.698;23.324;2024-02-26T06:41:54;47.45;;;27.15;;
80930;SDS011;70388;42.698;23.324;2024-02-26T06:44:25;45.65;;;26.17;;
80930;SDS011;70388;42.698;23.324;2024-02-26T06:46:56;40.97;;;25.42;;
80930;SDS011;70388;42.698;23.324;2024-02-26T06:49:23;39.97;;;25.42;;
80930;SDS011;70388;42.698;23.324;2024-02-26T06:51:49;42.60;;;24.98;;
80930;SDS011;70388;42.698;23.324;2024-02-26T06:54:15;46.97;;;26.88;;
80930;SDS011;70388;42.698;23.324;2024-02-26T06:56:40;47.42;;;26.65;;
80930;SDS011;70388;42.698;23.324;2024-02-26T06:59:06;43.55;;;26.85;;
80930;SDS011;70388;42.698;23.324;2024-02-26T07:01:32;43.15;;;27.55;;
80930;SDS011;70388;42.698;23.324;2024-02-26T07:03:58;47.90;;;27.60;;
80930;SDS011;70388;42.698;23.324;2024-02-26T07:06:23;49.92;;;29.40;;
80930;SDS011;70388;42.698;23.324;2024-02-26T07:08:49;50.97;;;30.90;;
80930;SDS011;70388;42.698;23.324;2024-02-26T07:11:15;50.65;;;30.70;;
80930;SDS011;70388;42.698;23.324;2024-02-26T07:13:40;61.47;;;36.20;;
80930;SDS011;70388;42.698;23.324;2024-02-26T07:16:08;52.85;;;31.20;;
80930;SDS011;70388;42.698;23.324;2024-02-26T07:18:35;49.13;;;28.92;;
80930;SDS011;70388;42.698;23.324;2024-02-26T07:21:03;45.88;;;29.25;;
80930;SDS011;70388;42.698;23.324;2024-02-26T07:23:29;57.80;;;31.92;;
80930;SDS011;70388;42.698;23.324;2024-02-26T07:25:56;60.28;;;34.22;;
80930;SDS011;70388;42.698;23.324;2024-02-26T07:28:21;53.25;;;32.28;;
80930;SDS011;70388;42.698;23.324;2024-02-26T07:30:47;53.00;;;31.80;;
80930;SDS011;70388;42.698;23.324;2024-02-26T07:33:13;54.03;;;32.65;;
80930;SDS011;70388;42.698;23.324;2024-02-26T07:35:39;50.95;;;30.38;;
80930;SDS011;70388;42.698;23.324;2024-02-26T07:38:04;47.47;;;29.45;;
80930;SDS011;70388;42.698;23.324;2024-02-26T07:40:30;57.50;;;31.88;;
80930;SDS011;70388;42.698;23.324;2024-02-26T07:42:57;56.75;;;30.65;;
80930;SDS011;70388;42.698;23.324;2024-02-26T07:45:22;53.50;;;30.65;;
80930;SDS011;70388;42.698;23.324;2024-02-26T07:47:48;50.17;;;28.92;;
80930;SDS011;70388;42.698;23.324;2024-02-26T07:50:14;49.08;;;28.17;;
80930;SDS011;70388;42.698;23.324;2024-02-26T07:52:40;48.65;;;28.60;;
80930;SDS011;70388;42.698;23.324;2024-02-26T07:55:06;47.50;;;30.65;;
80930;SDS011;70388;42.698;23.324;2024-02-26T07:57:32;51.28;;;34.03;;
80930;SDS011;70388;42.698;23.324;2024-02-26T07:59:59;48.47;;;33.65;;
80930;SDS011;70388;42.698;23.324;2024-02-26T08:02:25;47.85;;;31.13;;
80930;SDS011;70388;42.698;23.324;2024-02-26T08:04:50;51.17;;;32.25;;
80930;SDS011;70388;42.698;23.324;2024-02-26T08:07:16;48.63;;;28.98;;
80930;SDS011;70388;42.698;23.324;2024-02-26T08:09:42;52.47;;;31.40;;
80930;SDS011;70388;42.698;23.324;2024-02-26T08:12:08;53.08;;;31.13;;
80930;SDS011;70388;42.698;23.324;2024-02-26T08:14:34;49.70;;;30.65;;
80930;SDS011;70388;42.698;23.324;2024-02-26T08:17:00;53.58;;;30.88;;
80930;SDS011;70388;42.698;23.324;2024-02-26T08:19:26;52.30;;;33.97;;
80930;SDS011;70388;42.698;23.324;2024-02-26T08:21:52;66.55;;;45.17;;
80930;SDS011;70388;42.698;23.324;2024-02-26T08:24:18;71.30;;;47.33;;
80930;SDS011;70388;42.698;23.324;2024-02-26T08:26:43;61.42;;;41.40;;
80930;SDS011;70388;42.698;23.324;2024-02-26T08:29:10;58.35;;;40.97;;
80930;SDS011;70388;42.698;23.324;2024-02-26T08:31:35;59.42;;;36.80;;
80930;SDS011;70388;42.698;23.324;2024-02-26T08:34:03;49.83;;;33.40;;
80930;SDS011;70388;42.698;23.324;2024-02-26T08:36:30;44.15;;;27.00;;
80930;SDS011;70388;42.698;23.324;2024-02-26T08:38:58;41.17;;;26.88;;
80930;SDS011;70388;42.698;23.324;2024-02-26T08:41:24;37.35;;;24.52;;
80930;SDS011;70388;42.698;23.324;2024-02-26T08:43:49;37.05;;;25.33;;
80930;SDS011;70388;42.698;23.324;2024-02-26T08:46:15;30.30;;;20.67;;
80930;SDS011;70388;42.698;23.324;2024-02-26T08:48:41;33.38;;;20.33;;
80930;SDS011;70388;42.698;23.324;2024-02-26T08:51:07;34.67;;;21.35;;
80930;SDS011;70388;42.698;23.324;2024-02-26T08:53:34;68.45;;;31.00;;
80930;SDS011;70388;42.698;23.324;2024-02-26T08:56:00;39.05;;;22.17;;
80930;SDS011;70388;42.698;23.324;2024-02-26T08:58:27;50.85;;;25.98;;
80930;SDS011;70388;42.698;23.324;2024-02-26T09:00:53;48.30;;;28.42;;
80930;SDS011;70388;42.698;23.324;2024-02-26T09:03:19;37.95;;;22.30;;
80930;SDS011;70388;42.698;23.324;2024-02-26T09:05:45;34.03;;;19.50;;
80930;SDS011;70388;42.698;23.324;2024-02-26T09:08:11;31.20;;;19.45;;
80930;SDS011;70388;42.698;23.324;2024-02-26T09:10:37;34.92;;;20.80;;
80930;SDS011;70388;42.698;23.324;2024-02-26T09:13:03;31.42;;;18.98;;
80930;SDS011;70388;42.698;23.324;2024-02-26T09:15:29;27.13;;;16.73;;
80930;SDS011;70388;42.698;23.324;2024-02-26T09:17:55;30.05;;;16.58;;
80930;SDS011;70388;42.698;23.324;2024-02-26T09:20:21;26.20;;;16.20;;
80930;SDS011;70388;42.698;23.324;2024-02-26T09:22:48;24.02;;;15.70;;
80930;SDS011;70388;42.698;23.324;2024-02-26T09:25:15;25.92;;;14.73;;
80930;SDS011;70388;42.698;23.324;2024-02-26T09:27:42;25.20;;;16.60;;
80930;SDS011;70388;42.698;23.324;2024-02-26T09:30:11;25.83;;;15.77;;
80930;SDS011;70388;42.698;23.324;2024-02-26T09:32:38;21.52;;;13.25;;
80930;SDS011;70388;42.698;23.324;2024-02-26T09:35:07;17.73;;;11.98;;
80930;SDS011;70388;42.698;23.324;2024-02-26T09:37:33;20.73;;;12.25;;
80930;SDS011;70388;42.698;23.324;2024-02-26T09:40:01;16.73;;;10.82;;
80930;SDS011;70388;42.698;23.324;2024-02-26T09:42:28;14.85;;;10.05;;
80930;SDS011;70388;42.698;23.324;2024-02-26T09:44:58;13.88;;;9.05;;
80930;SDS011;70388;42.698;23.324;2024-02-26T09:47:31;17.33;;;10.50;;
80930;SDS011;70388;42.698;23.324;2024-02-26T09:49:57;14.55;;;8.55;;
80930;SDS011;70388;42.698;23.324;2024-02-26T09:52:26;13.65;;;8.80;;
80930;SDS011;70388;42.698;23.324;2024-02-26T09:54:53;13.52;;;8.70;;
80930;SDS011;70388;42.698;23.324;2024-02-26T09:57:19;15.18;;;7.85;;
80930;SDS011;70388;42.698;23.324;2024-02-26T09:59:49;10.35;;;7.13;;
80930;SDS011;70388;42.698;23.324;2024-02-26T10:02:18;13.52;;;7.43;;
80930;SDS011;70388;42.698;23.324;2024-02-26T10:04:46;9.65;;;7.30;;
80930;SDS011;70388;42.698;23.324;2024-02-26T10:07:12;14.60;;;7.82;;
80930;SDS011;70388;42.698;23.324;2024-02-26T10:09:39;17.02;;;10.50;;
80930;SDS011;70388;42.698;23.324;2024-02-26T10:12:07;11.23;;;7.93;;
80930;SDS011;70388;42.698;23.324;2024-02-26T10:14:35;13.02;;;7.40;;
80930;SDS011;70388;42.698;23.324;2024-02-26T10:17:01;10.27;;;6.65;;
80930;SDS011;70388;42.698;23.324;2024-02-26T10:19:30;11.75;;;6.93;;
80930;SDS011;70388;42.698;23.324;2024-02-26T10:21:56;12.43;;;7.43;;
80930;SDS011;70388;42.698;23.324;2024-02-26T10:24:23;11.35;;;7.30;;
80930;SDS011;70388;42.698;23.324;2024-02-26T10:26:50;15.77;;;7.40;;
80930;SDS011;70388;42.698;23.324;2024-02-26T10:29:17;11.88;;;7.47;;
80930;SDS011;70388;42.698;23.324;2024-02-26T10:31:44;11.25;;;7.90;;
80930;SDS011;70388;42.698;23.324;2024-02-26T10:34:10;14.05;;;7.82;;
80930;SDS011;70388;42.698;23.324;2024-02-26T10:36:36;12.50;;;7.28;;
80930;SDS011;70388;42.698;23.324;2024-02-26T10:39:03;12.30;;;7.07;;
80930;SDS011;70388;42.698;23.324;2024-02-26T10:41:30;14.65;;;8.63;;
80930;SDS011;70388;42.698;23.324;2024-02-26T10:43:57;10.68;;;7.78;;
80930;SDS011;70388;42.698;23.324;2024-02-26T10:46:23;14.57;;;7.90;;
80930;SDS011;70388;42.698;23.324;2024-02-26T10:48:51;12.38;;;7.70;;
80930;SDS011;70388;42.698;23.324;2024-02-26T10:51:28;15.52;;;8.10;;
80930;SDS011;70388;42.698;23.324;2024-02-26T10:53:58;12.70;;;7.50;;
80930;SDS011;70388;42.698;23.324;2024-02-26T10:56:29;12.40;;;8.20;;
80930;SDS011;70388;42.698;23.324;2024-02-26T10:58:59;12.60;;;7.85;;
80930;SDS011;70388;42.698;23.324;2024-02-26T11:01:27;14.85;;;8.05;;
80930;SDS011;70388;42.698;23.324;2024-02-26T11:03:57;11.40;;;7.28;;
80930;SDS011;70388;42.698;23.324;2024-02-26T11:06:24;10.38;;;7.10;;
80930;SDS011;70388;42.698;23.324;2024-02-26T11:08:52;12.88;;;6.90;;
80930;SDS011;70388;42.698;23.324;2024-02-26T11:11:19;12.95;;;7.38;;
80930;SDS011;70388;42.698;23.324;2024-02-26T11:13:47;13.07;;;7.93;;
80930;SDS011;70388;42.698;23.324;2024-02-26T11:16:18;8.35;;;6.70;;
80930;SDS011;70388;42.698;23.324;2024-02-26T11:18:46;12.88;;;7.78;;
80930;SDS011;70388;42.698;23.324;2024-02-26T11:21:15;8.52;;;6.50;;
80930;SDS011;70388;42.698;23.324;2024-02-26T11:23:43;9.88;;;6.47;;
80930;SDS011;70388;42.698;23.324;2024-02-26T11:26:10;9.88;;;6.50;;
80930;SDS011;70388;42.698;23.324;2024-02-26T11:28:38;10.30;;;7.40;;
80930;SDS011;70388;42.698;23.324;2024-02-26T11:31:05;9.43;;;6.85;;
80930;SDS011;70388;42.698;23.324;2024-02-26T11:33:32;9.93;;;6.63;;
80930;SDS011;70388;42.698;23.324;2024-02-26T11:36:01;10.45;;;6.93;;
80930;SDS011;70388;42.698;23.324;2024-02-26T11:38:28;13.13;;;7.07;;
80930;SDS011;70388;42.698;23.324;2024-02-26T11:40:54;10.63;;;7.18;;
80930;SDS011;70388;42.698;23.324;2024-02-26T11:43:23;14.75;;;7.38;;
80930;SDS011;70388;42.698;23.324;2024-02-26T11:46:32;9.55;;;6.40;;
80930;SDS011;70388;42.698;23.324;2024-02-26T11:49:29;10.82;;;6.47;;
80930;SDS011;70388;42.698;23.324;2024-02-26T11:51:55;10.30;;;7.03;;
80930;SDS011;70388;42.698;23.324;2024-02-26T11:57:24;10.20;;;6.60;;
80930;SDS011;70388;42.698;23.324;2024-02-26T11:59:54;9.18;;;6.90;;
80930;SDS011;70388;42.698;23.324;2024-02-26T12:02:43;11.70;;;6.55;;
80930;SDS011;70388;42.698;23.324;2024-02-26T12:10:22;12.40;;;8.33;;
80930;SDS011;70388;42.698;23.324;2024-02-26T12:15:30;10.13;;;6.85;;
80930;SDS011;70388;42.698;23.324;2024-02-26T12:17:58;9.63;;;7.20;;
80930;SDS011;70388;42.698;23.324;2024-02-26T12:20:26;10.63;;;6.25;;
80930;SDS011;70388;42.698;23.324;2024-02-26T12:22:52;11.90;;;6.82;;
80930;SDS011;70388;42.698;23.324;2024-02-26T12:25:27;9.82;;;6.97;;
80930;SDS011;70388;42.698;23.324;2024-02-26T12:30:20;8.75;;;6.00;;
80930;SDS011;70388;42.698;23.324;2024-02-26T12:32:49;10.18;;;5.80;;
80930;SDS011;70388;42.698;23.324;2024-02-26T12:35:16;10.05;;;6.35;;
80930;SDS011;70388;42.698;23.324;2024-02-26T12:37:43;9.65;;;6.30;;
80930;SDS011;70388;42.698;23.324;2024-02-26T12:40:10;8.90;;;6.22;;
80930;SDS011;70388;42.698;23.324;2024-02-26T12:42:36;9.18;;;6.22;;
80930;SDS011;70388;42.698;23.324;2024-02-26T12:45:06;10.95;;;6.75;;
80930;SDS011;70388;42.698;23.324;2024-02-26T12:47:43;10.93;;;5.70;;
80930;SDS011;70388;42.698;23.324;2024-02-26T12:50:14;8.80;;;5.80;;
80930;SDS011;70388;42.698;23.324;2024-02-26T12:52:42;9.35;;;6.00;;
80930;SDS011;70388;42.698;23.324;2024-02-26T12:55:10;12.20;;;6.60;;
80930;SDS011;70388;42.698;23.324;2024-02-26T12:57:39;8.68;;;5.68;;
80930;SDS011;70388;42.698;23.324;2024-02-26T13:00:08;8.02;;;5.68;;
80930;SDS011;70388;42.698;23.324;2024-02-26T13:02:37;13.50;;;6.32;;
80930;SDS011;70388;42.698;23.324;2024-02-26T13:05:05;9.23;;;5.78;;
80930;SDS011;70388;42.698;23.324;2024-02-26T13:07:33;9.40;;;5.50;;
80930;SDS011;70388;42.698;23.324;2024-02-26T13:09:59;9.88;;;5.40;;
80930;SDS011;70388;42.698;23.324;2024-02-26T13:12:25;10.98;;;5.45;;
80930;SDS011;70388;42.698;23.324;2024-02-26T13:14:58;8.80;;;5.13;;
80930;SDS011;70388;42.698;23.324;2024-02-26T13:17:25;10.73;;;6.07;;
80930;SDS011;70388;42.698;23.324;2024-02-26T13:19:53;8.20;;;4.68;;
80930;SDS011;70388;42.698;23.324;2024-02-26T13:22:20;8.35;;;5.50;;
80930;SDS011;70388;42.698;23.324;2024-02-26T13:24:54;10.13;;;5.78;;
80930;SDS011;70388;42.698;23.324;2024-02-26T13:32:47;8.48;;;5.50;;
80930;SDS011;70388;42.698;23.324;2024-02-26T13:35:13;9.25;;;5.60;;
80930;SDS011;70388;42.698;23.324;2024-02-26T13:37:39;10.18;;;5.45;;
80930;SDS011;70388;42.698;23.324;2024-02-26T13:40:06;10.43;;;6.43;;
80930;SDS011;70388;42.698;23.324;2024-02-26T13:42:33;9.27;;;6.30;;
80930;SDS011;70388;42.698;23.324;2024-02-26T13:45:00;9.07;;;5.63;;
80930;SDS011;70388;42.698;23.324;2024-02-26T13:47:26;8.65;;;6.00;;
80930;SDS011;70388;42.698;23.324;2024-02-26T13:49:52;11.05;;;5.50;;
80930;SDS011;70388;42.698;23.324;2024-02-26T13:52:18;9.98;;;5.90;;
80930;SDS011;70388;42.698;23.324;2024-02-26T13:54:45;10.00;;;6.32;;
80930;SDS011;70388;42.698;23.324;2024-02-26T13:57:11;11.85;;;6.72;;
80930;SDS011;70388;42.698;23.324;2024-02-26T13:59:37;10.45;;;5.55;;
80930;SDS011;70388;42.698;23.324;2024-02-26T14:02:07;10.52;;;5.78;;
80930;SDS011;70388;42.698;23.324;2024-02-26T14:04:36;8.68;;;5.50;;
80930;SDS011;70388;42.698;23.324;2024-02-26T14:07:02;7.70;;;5.38;;
80930;SDS011;70388;42.698;23.324;2024-02-26T14:09:29;10.10;;;5.55;;
80930;SDS011;70388;42.698;23.324;2024-02-26T14:11:54;7.65;;;5.40;;
80930;SDS011;70388;42.698;23.324;2024-02-26T14:14:20;11.40;;;6.53;;
80930;SDS011;70388;42.698;23.324;2024-02-26T14:16:46;14.15;;;6.75;;
80930;SDS011;70388;42.698;23.324;2024-02-26T14:19:12;10.20;;;6.70;;
80930;SDS011;70388;42.698;23.324;2024-02-26T14:21:37;15.23;;;4.90;;
80930;SDS011;70388;42.698;23.324;2024-02-26T14:24:04;8.90;;;4.90;;
80930;SDS011;70388;42.698;23.324;2024-02-26T14:26:30;8.40;;;5.47;;
80930;SDS011;70388;42.698;23.324;2024-02-26T14:28:57;10.48;;;5.47;;
80930;SDS011;70388;42.698;23.324;2024-02-26T14:31:23;7.68;;;5.07;;